Time;durP1;ratioP1;P1;durP2;ratioP2;P2;SDS_P1;SDS_P2;PMS_P1;PMS_P2;Temp;Humidity;BMP_temperature;BMP_pressure;BME280_temperature;BME280_humidity;BME280_pressure;Samples;Min_cycle;Max_cycle;Signal;HPM_P1;HPM_P2
2022/12/20 12:20:38;;;;;;;9.90;5.70;;;;;;;9.48;100.00;100958.44;5311858;27;20375;-74
2022/12/20 12:24:12;;;;;;;8.97;4.83;;;;;;;9.47;100.00;100951.50;5321683;28;20448;-75
2022/12/20 12:26:43;;;;;;;8.33;4.50;;;;;;;9.45;100.00;100941.13;5235564;28;20038;-75
2022/12/20 12:29:16;;;;;;;9.87;4.73;;;;;;;9.55;100.00;100944.06;5286025;28;20035;-74
2022/12/20 12:31:51;;;;;;;8.20;4.43;;;;;;;9.56;100.00;100945.78;5287592;28;20032;-75
2022/12/20 12:34:44;;;;;;;7.23;4.90;;;;;;;9.60;100.00;100949.91;5284110;28;20031;-70
2022/12/20 12:37:48;;;;;;;9.83;5.20;;;;;;;9.62;100.00;100952.44;5287562;28;20463;-76
2022/12/20 12:40:31;;;;;;;7.87;4.80;;;;;;;9.63;100.00;100951.53;5287522;28;20037;-72
2022/12/20 12:43:05;;;;;;;8.50;4.57;;;;;;;9.64;100.00;100951.44;5291975;28;20029;-74
2022/12/20 12:45:45;;;;;;;7.15;4.38;;;;;;;9.65;100.00;100944.44;5291374;28;20024;-72
2022/12/20 12:48:19;;;;;;;5.83;4.17;;;;;;;9.67;100.00;100951.25;5292932;28;20024;-74
2022/12/20 12:50:55;;;;;;;9.90;5.35;;;;;;;9.65;100.00;100937.41;5292648;28;20020;-70
2022/12/20 12:53:44;;;;;;;6.83;4.50;;;;;;;9.69;100.00;100943.31;5292059;28;20028;-73
2022/12/20 12:56:25;;;;;;;9.73;4.57;;;;;;;9.73;100.00;100944.00;5292879;28;20550;-72
2022/12/20 12:59:05;;;;;;;8.77;5.30;;;;;;;9.72;100.00;100934.47;5292422;28;20490;-73
2022/12/20 13:01:55;;;;;;;7.63;4.90;;;;;;;9.71;100.00;100932.78;5293319;28;20028;-75
2022/12/20 13:04:48;;;;;;;13.23;7.00;;;;;;;9.73;100.00;100944.00;5292698;28;20097;-70
2022/12/20 13:07:42;;;;;;;8.83;5.90;;;;;;;9.72;100.00;100930.06;5259318;28;20047;-71
2022/12/20 13:10:13;;;;;;;8.50;4.27;;;;;;;9.70;100.00;100929.34;5274604;28;20051;-74
2022/12/20 13:12:51;;;;;;;6.67;4.50;;;;;;;9.76;100.00;100929.00;5292980;28;20032;-74
2022/12/20 13:15:22;;;;;;;4.47;3.60;;;;;;;9.72;100.00;100921.41;5281650;28;20021;-72
2022/12/20 13:17:59;;;;;;;6.30;3.60;;;;;;;9.68;100.00;100926.81;5298935;28;20035;-75
2022/12/20 13:20:32;;;;;;;7.37;3.90;;;;;;;9.66;100.00;100928.66;5287191;28;20043;-75
2022/12/20 13:23:11;;;;;;;6.05;3.30;;;;;;;9.70;100.00;100933.72;5280988;28;20019;-69
2022/12/20 13:25:50;;;;;;;4.70;3.30;;;;;;;9.71;100.00;100941.47;5281910;28;20021;-75
2022/12/20 13:28:21;;;;;;;5.80;3.53;;;;;;;9.72;100.00;100943.16;5285415;28;20021;-73
2022/12/20 13:30:53;;;;;;;8.63;3.73;;;;;;;9.71;100.00;100941.47;5263545;28;20031;-71
2022/12/20 13:33:43;;;;;;;4.23;3.73;;;;;;;9.71;100.00;100940.63;5264617;28;20024;-72
2022/12/20 13:36:14;;;;;;;4.90;3.53;;;;;;;9.69;100.00;100943.31;5290792;28;20039;-70
2022/12/20 13:38:51;;;;;;;8.27;4.20;;;;;;;9.70;100.00;100941.56;5261436;28;20020;-70
2022/12/20 13:41:34;;;;;;;10.57;4.70;;;;;;;9.72;100.00;100944.94;5311014;28;20086;-70
2022/12/20 13:44:14;;;;;;;6.70;3.80;;;;;;;9.70;100.00;100928.50;5277963;28;20024;-73
2022/12/20 13:47:14;;;;;;;5.17;3.23;;;;;;;9.68;100.00;100929.44;5274762;28;20479;-73
2022/12/20 13:49:46;;;;;;;7.20;3.60;;;;;;;9.64;100.00;100942.72;5300285;28;20595;-72
2022/12/20 13:52:29;;;;;;;5.77;3.60;;;;;;;9.64;100.00;100937.50;5276840;28;20099;-75
2022/12/20 13:55:15;;;;;;;5.93;3.57;;;;;;;9.66;100.00;100935.66;5275324;28;20078;-76
2022/12/20 13:57:46;;;;;;;7.03;4.10;;;;;;;9.61;100.00;100930.69;5276120;28;20042;-72
2022/12/20 14:00:26;;;;;;;5.03;3.27;;;;;;;9.66;100.00;100933.03;5273901;28;20036;-73
2022/12/20 14:02:59;;;;;;;4.03;2.83;;;;;;;9.64;100.00;100930.50;5274691;28;20031;-71
2022/12/20 14:05:35;;;;;;;5.40;3.20;;;;;;;9.51;100.00;100906.78;5275383;28;20024;-73
2022/12/20 14:08:16;;;;;;;4.47;3.13;;;;;;;9.64;100.00;100924.44;5270647;28;20032;-76
2022/12/20 14:10:47;;;;;;;6.80;3.60;;;;;;;9.56;100.00;100932.72;5274669;28;20025;-74
2022/12/20 14:13:25;;;;;;;5.23;3.10;;;;;;;9.58;100.00;100928.25;5276977;28;20054;-78
2022/12/20 14:16:07;;;;;;;4.10;3.07;;;;;;;9.60;100.00;100931.59;5279889;28;20028;-78
2022/12/20 14:18:39;;;;;;;5.20;2.90;;;;;;;9.59;100.00;100936.91;5277064;28;20044;-76
2022/12/20 14:21:10;;;;;;;5.67;2.90;;;;;;;9.59;100.00;100922.06;5264807;28;20498;-70
2022/12/20 14:23:46;;;;;;;5.27;3.47;;;;;;;9.52;100.00;100926.78;5270008;28;20051;-73
2022/12/20 14:26:23;;;;;;;5.50;3.90;;;;;;;9.48;100.00;100929.66;5272267;28;20033;-74
2022/12/20 14:28:57;;;;;;;5.03;3.83;;;;;;;9.55;100.00;100936.22;5269386;28;20530;-77
2022/12/20 14:31:41;;;;;;;5.80;2.88;;;;;;;9.57;100.00;100937.00;5276233;28;20047;-77
2022/12/20 14:34:26;;;;;;;8.97;3.43;;;;;;;9.55;100.00;100933.63;5277447;28;20672;-77
2022/12/20 14:37:24;;;;;;;7.13;3.87;;;;;;;9.53;100.00;100936.31;5268520;28;20311;-76
2022/12/20 14:40:16;;;;;;;5.50;3.37;;;;;;;9.46;100.00;100918.44;5269005;28;20442;-78
2022/12/20 14:42:48;;;;;;;8.13;3.60;;;;;;;9.43;100.00;100929.91;5265501;28;20574;-78
2022/12/20 14:45:22;;;;;;;5.93;3.67;;;;;;;9.49;100.00;100934.81;5279192;28;20111;-70
2022/12/20 14:48:02;;;;;;;5.80;3.50;;;;;;;9.44;100.00;100929.00;5265326;28;20040;-75
2022/12/20 14:50:36;;;;;;;10.23;3.87;;;;;;;9.47;100.00;100926.19;5272732;28;20040;-75
2022/12/20 14:53:18;;;;;;;4.82;3.50;;;;;;;9.44;100.00;100927.19;5272715;28;20568;-76
2022/12/20 14:55:50;;;;;;;6.97;3.90;;;;;;;9.41;100.00;100919.53;5271804;28;20035;-73
2022/12/20 14:58:33;;;;;;;10.17;4.00;;;;;;;9.43;100.00;100916.81;5273503;28;20463;-78
2022/12/20 15:01:20;;;;;;;5.73;4.13;;;;;;;9.43;100.00;100916.81;5276689;28;20024;-78
2022/12/20 15:03:54;;;;;;;6.03;3.93;;;;;;;9.39;100.00;100910.91;5263193;28;20012;-81
2022/12/20 15:06:36;;;;;;;8.80;4.35;;;;;;;9.38;100.00;100890.94;5275024;28;20029;-79
2022/12/20 15:09:07;;;;;;;8.63;4.57;;;;;;;9.42;100.00;100904.69;5272103;28;20025;-77
2022/12/20 15:11:41;;;;;;;7.47;4.03;;;;;;;9.43;100.00;100896.75;5274939;28;20024;-75
2022/12/20 15:14:26;;;;;;;5.75;3.58;;;;;;;9.42;100.00;100884.63;5265901;28;20090;-79
2022/12/20 15:16:57;;;;;;;7.57;4.95;;;;;;;9.38;100.00;100887.47;5272125;28;20558;-77
2022/12/20 15:19:30;;;;;;;6.03;4.30;;;;;;;9.35;100.00;100888.50;5266917;28;20068;-68
2022/12/20 15:22:01;;;;;;;6.43;4.53;;;;;;;9.40;100.00;100906.53;5273235;28;20051;-80
2022/12/20 15:24:33;;;;;;;6.83;4.80;;;;;;;9.31;100.00;100893.06;5272502;28;20045;-77
2022/12/20 15:27:05;;;;;;;6.50;5.00;;;;;;;9.34;100.00;100897.25;5278044;28;20344;-72
2022/12/20 15:29:37;;;;;;;6.77;4.87;;;;;;;9.30;100.00;100888.72;5270691;28;20067;-79
2022/12/20 15:32:20;;;;;;;8.63;5.10;;;;;;;9.39;100.00;100897.03;5273593;28;20094;-74
2022/12/20 15:34:52;;;;;;;8.70;5.27;;;;;;;9.28;100.00;100892.38;5274410;28;20367;-71
2022/12/20 15:37:23;;;;;;;8.20;5.63;;;;;;;9.31;100.00;100895.66;5273077;28;20020;-75
2022/12/20 15:39:54;;;;;;;8.43;5.57;;;;;;;9.28;100.00;100895.84;5274595;28;20073;-76
2022/12/20 15:42:25;;;;;;;9.50;6.80;;;;;;;9.29;100.00;100904.50;5270119;28;20027;-80
2022/12/20 15:44:57;;;;;;;9.50;5.50;;;;;;;9.28;100.00;100901.06;5273187;28;20035;-80
2022/12/20 15:47:28;;;;;;;10.40;6.33;;;;;;;9.30;100.00;100895.75;5265308;28;20128;-77
2022/12/20 15:50:00;;;;;;;10.10;6.27;;;;;;;9.30;100.00;100906.19;5270143;28;20572;-79
2022/12/20 15:52:31;;;;;;;9.23;6.40;;;;;;;9.31;100.00;100908.72;5272954;28;20025;-79
2022/12/20 15:55:03;;;;;;;10.43;6.27;;;;;;;9.29;100.00;100909.72;5273857;28;20025;-72
2022/12/20 15:57:34;;;;;;;8.80;6.87;;;;;;;9.30;100.00;100912.25;5272431;28;20017;-77
2022/12/20 16:00:06;;;;;;;8.00;6.40;;;;;;;9.30;100.00;100911.44;5275117;28;20701;-80
2022/12/20 16:02:38;;;;;;;9.50;6.53;;;;;;;9.29;100.00;100909.72;5273831;28;20479;-77
2022/12/20 16:05:12;;;;;;;10.07;6.73;;;;;;;9.28;100.00;100902.81;5274352;28;20070;-78
2022/12/20 16:07:43;;;;;;;7.60;6.22;;;;;;;9.25;100.00;100897.75;5273296;28;20021;-77
2022/12/20 16:10:15;;;;;;;13.73;7.30;;;;;;;9.30;100.00;100906.19;5273413;28;20048;-78
2022/12/20 16:12:46;;;;;;;10.43;7.17;;;;;;;9.28;100.00;100902.81;5272445;28;20029;-71
2022/12/20 16:15:20;;;;;;;9.40;6.70;;;;;;;9.27;100.00;100911.56;5273567;28;20033;-76
2022/12/20 16:17:51;;;;;;;11.82;7.00;;;;;;;9.29;100.00;100904.50;5272116;28;20091;-83
2022/12/20 16:20:23;;;;;;;9.63;7.27;;;;;;;9.24;100.00;100896.91;5274154;28;20053;-75
2022/12/20 16:22:54;;;;;;;9.07;6.53;;;;;;;9.26;100.00;100896.81;5270475;28;20070;-74
2022/12/20 16:25:35;;;;;;;11.77;7.50;;;;;;;9.30;100.00;100911.44;5274836;28;20422;-74
2022/12/20 16:28:07;;;;;;;10.33;6.87;;;;;;;9.28;100.00;100916.75;5276118;28;20028;-80
2022/12/20 16:30:38;;;;;;;9.33;6.90;;;;;;;9.23;100.00;100910.91;5277926;28;20447;-75
2022/12/20 16:33:19;;;;;;;12.53;7.17;;;;;;;9.24;100.00;100902.13;5274223;28;20034;-76
2022/12/20 16:35:51;;;;;;;10.97;7.23;;;;;;;9.22;100.00;100897.91;5276126;28;20077;-77
2022/12/20 16:38:23;;;;;;;12.13;7.37;;;;;;;9.24;100.00;100903.91;5272264;28;20024;-78
2022/12/20 16:40:54;;;;;;;8.67;6.90;;;;;;;9.25;100.00;100903.00;5274390;28;20029;-79
2022/12/20 16:43:26;;;;;;;11.80;7.53;;;;;;;9.23;100.00;100895.25;5273922;28;20021;-82
2022/12/20 16:45:57;;;;;;;9.67;6.53;;;;;;;9.21;100.00;100907.53;5302112;28;20025;-82
2022/12/20 16:48:29;;;;;;;10.27;7.83;;;;;;;9.22;100.00;100898.75;5274471;28;20040;-75
2022/12/20 16:51:01;;;;;;;9.93;6.80;;;;;;;9.24;100.00;100906.50;5273650;28;20028;-79
2022/12/20 16:53:32;;;;;;;10.07;7.30;;;;;;;9.27;100.00;100912.41;5272585;28;20017;-72
2022/12/20 16:56:04;;;;;;;10.70;6.80;;;;;;;9.25;100.00;100909.03;5272660;28;20058;-80
2022/12/20 16:58:35;;;;;;;10.83;6.93;;;;;;;9.14;100.00;100885.25;5273678;28;20032;-80
2022/12/20 17:01:13;;;;;;;10.77;7.00;;;;;;;9.22;100.00;100903.13;5270695;28;20025;-79
2022/12/20 17:03:46;;;;;;;11.77;7.83;;;;;;;9.26;100.00;100899.44;5275720;28;20023;-79
2022/12/20 17:06:18;;;;;;;10.30;7.97;;;;;;;9.24;100.00;100901.28;5273084;28;20446;-80
2022/12/20 17:08:49;;;;;;;12.00;6.53;;;;;;;9.22;100.00;100890.06;5273264;28;20055;-74
2022/12/20 17:11:30;;;;;;;10.33;7.40;;;;;;;9.27;100.00;100894.13;5274330;28;20087;-79
2022/12/20 17:14:03;;;;;;;9.70;6.83;;;;;;;9.25;100.00;100895.97;5273660;28;20028;-75
2022/12/20 17:16:34;;;;;;;10.93;7.27;;;;;;;9.22;100.00;100898.75;5311968;28;20071;-76
2022/12/20 17:19:06;;;;;;;8.50;6.73;;;;;;;9.19;100.00;100889.31;5278552;28;20049;-74
2022/12/20 17:21:41;;;;;;;9.77;7.97;;;;;;;9.22;100.00;100897.91;5263772;28;20121;-77
2022/12/20 17:24:18;;;;;;;9.23;7.10;;;;;;;9.24;100.00;100896.06;5273385;28;20032;-74
2022/12/20 17:26:50;;;;;;;7.53;6.73;;;;;;;9.16;100.00;100879.00;5278478;28;20111;-73
2022/12/20 17:29:21;;;;;;;8.97;6.57;;;;;;;9.19;100.00;100889.31;5276215;28;20545;-74
2022/12/20 17:31:52;;;;;;;11.53;7.60;;;;;;;9.19;100.00;100880.63;5272663;28;20052;-73
2022/12/20 17:34:29;;;;;;;11.57;7.73;;;;;;;9.23;100.00;100889.16;5278369;28;20142;-73
2022/12/20 17:37:01;;;;;;;10.20;6.97;;;;;;;9.14;100.00;100883.50;5277730;28;20090;-78
2022/12/20 17:39:32;;;;;;;12.13;6.80;;;;;;;9.15;100.00;100882.56;5275144;28;20028;-76
2022/12/20 17:42:03;;;;;;;8.70;7.67;;;;;;;9.19;100.00;100899.78;5277726;28;20463;-75
2022/12/20 17:44:35;;;;;;;7.97;6.93;;;;;;;9.20;100.00;100891.00;5277708;28;20024;-73
2022/12/20 17:47:06;;;;;;;11.20;7.47;;;;;;;9.14;100.00;100886.13;5278461;28;20020;-80
2022/12/20 17:49:41;;;;;;;9.63;7.43;;;;;;;9.18;100.00;100895.47;5277457;28;20558;-72
2022/12/20 17:52:14;;;;;;;8.03;7.13;;;;;;;9.10;100.00;100892.41;5273337;28;20125;-80
2022/12/20 17:54:45;;;;;;;9.37;7.53;;;;;;;9.14;100.00;100903.56;5278137;28;20107;-77
2022/12/20 17:57:17;;;;;;;10.80;7.87;;;;;;;9.18;100.00;100898.06;5275928;28;20104;-79
2022/12/20 17:59:48;;;;;;;10.50;8.23;;;;;;;9.20;100.00;100904.06;5271848;28;20103;-78
2022/12/20 18:02:22;;;;;;;9.63;7.23;;;;;;;9.22;100.00;100892.69;5272132;28;20024;-73
2022/12/20 18:04:53;;;;;;;11.73;8.30;;;;;;;9.17;100.00;100904.25;5276120;28;20029;-78
2022/12/20 18:07:24;;;;;;;13.53;8.27;;;;;;;9.20;100.00;100909.28;5275042;28;20028;-72
2022/12/20 18:09:56;;;;;;;11.57;8.63;;;;;;;9.20;100.00;100909.28;5273743;28;20161;-76
2022/12/20 18:12:27;;;;;;;9.70;8.53;;;;;;;9.18;100.00;100892.84;5276623;28;20023;-72
2022/12/20 18:14:58;;;;;;;9.07;8.17;;;;;;;9.24;100.00;100901.28;5274970;28;20082;-75
2022/12/20 18:17:30;;;;;;;10.67;9.07;;;;;;;9.20;100.00;100895.38;5276582;28;20483;-69
2022/12/20 18:20:03;;;;;;;12.80;8.67;;;;;;;9.17;100.00;100896.41;5276307;28;20119;-77
2022/12/20 18:22:35;;;;;;;10.13;8.70;;;;;;;8.85;100.00;100849.28;5276202;28;20074;-72
2022/12/20 18:25:07;;;;;;;10.10;8.83;;;;;;;9.12;100.00;100892.34;5258958;28;20024;-78
2022/12/20 18:27:40;;;;;;;12.10;10.23;;;;;;;9.23;100.00;100904.84;5271633;28;20142;-75
2022/12/20 18:30:12;;;;;;;10.93;8.80;;;;;;;9.21;100.00;100897.09;5260022;28;20031;-77
2022/12/20 18:32:43;;;;;;;9.67;8.67;;;;;;;9.22;100.00;100900.50;5275089;28;20033;-73
2022/12/20 18:35:15;;;;;;;12.30;8.83;;;;;;;9.17;100.00;100900.78;5269625;28;20027;-74
2022/12/20 18:37:46;;;;;;;10.33;9.33;;;;;;;9.23;100.00;100904.84;5269309;28;20111;-78
2022/12/20 18:40:17;;;;;;;11.13;9.93;;;;;;;9.22;100.00;100903.97;5276233;28;20490;-77
2022/12/20 18:42:49;;;;;;;10.57;8.57;;;;;;;9.22;100.00;100901.38;5275616;28;20035;-71
2022/12/20 18:45:21;;;;;;;11.23;9.57;;;;;;;9.21;100.00;100897.09;5275545;28;20043;-76
2022/12/20 18:47:52;;;;;;;11.50;10.10;;;;;;;9.21;100.00;100894.47;5272950;28;20032;-74
2022/12/20 18:50:23;;;;;;;11.03;9.37;;;;;;;9.23;100.00;100916.13;5274884;28;20582;-77
2022/12/20 18:52:54;;;;;;;10.57;9.47;;;;;;;9.23;100.00;100908.31;5274920;28;20051;-77
2022/12/20 18:55:26;;;;;;;11.23;10.13;;;;;;;9.14;100.00;100891.34;5275650;28;20028;-76
2022/12/20 18:57:57;;;;;;;10.80;9.60;;;;;;;9.12;100.00;100889.72;5271222;28;20033;-77
2022/12/20 19:00:28;;;;;;;10.80;9.70;;;;;;;9.23;100.00;100910.91;5266785;28;20032;-74
2022/12/20 19:03:01;;;;;;;10.83;9.23;;;;;;;9.25;100.00;100905.59;5264069;28;20032;-75
2022/12/20 19:05:33;;;;;;;10.63;9.63;;;;;;;9.22;100.00;100903.97;5267392;28;20038;-71
2022/12/20 19:08:04;;;;;;;11.03;9.80;;;;;;;9.20;100.00;100904.06;5265982;28;20376;-78
2022/12/20 19:10:35;;;;;;;12.43;9.73;;;;;;;9.19;100.00;100910.22;5266236;28;20043;-75
2022/12/20 19:13:07;;;;;;;10.37;9.37;;;;;;;9.20;100.00;100895.38;5266587;28;20042;-72
2022/12/20 19:15:38;;;;;;;11.23;10.13;;;;;;;9.23;100.00;100900.47;5267485;28;20036;-74
2022/12/20 19:18:09;;;;;;;12.57;10.10;;;;;;;9.18;100.00;100898.06;5267034;28;20043;-78
2022/12/20 19:20:41;;;;;;;11.30;9.97;;;;;;;9.19;100.00;100897.16;5267670;28;20063;-72
2022/12/20 19:23:12;;;;;;;13.80;10.23;;;;;;;9.19;100.00;100899.78;5266000;28;20040;-77
2022/12/20 19:25:43;;;;;;;12.37;10.50;;;;;;;9.24;100.00;100898.66;5299957;28;20115;-75
2022/12/20 19:28:15;;;;;;;12.87;10.63;;;;;;;9.24;100.00;100909.13;5266618;28;20755;-80
2022/12/20 19:30:46;;;;;;;11.17;9.97;;;;;;;9.18;100.00;100900.69;5267980;28;20522;-78
2022/12/20 19:33:18;;;;;;;14.97;10.53;;;;;;;9.18;100.00;100900.69;5266508;28;20064;-73
2022/12/20 19:35:50;;;;;;;12.70;10.53;;;;;;;9.20;100.00;100911.91;5265331;28;20149;-71
2022/12/20 19:38:21;;;;;;;11.07;9.97;;;;;;;9.18;100.00;100898.06;5263445;28;20146;-72
2022/12/20 19:40:52;;;;;;;14.27;10.30;;;;;;;9.20;100.00;100905.81;5266651;28;20052;-74
2022/12/20 19:43:24;;;;;;;14.20;11.87;;;;;;;9.20;100.00;100911.91;5266030;28;20039;-73
2022/12/20 19:45:56;;;;;;;14.93;10.83;;;;;;;9.10;100.00;100894.19;5265948;28;20037;-73
2022/12/20 19:48:27;;;;;;;13.27;10.90;;;;;;;9.15;100.00;100908.69;5264649;28;20198;-75
2022/12/20 19:51:00;;;;;;;12.07;10.63;;;;;;;9.14;100.00;100907.03;5264779;28;20050;-75
2022/12/20 19:53:32;;;;;;;14.77;11.50;;;;;;;9.19;100.00;100910.22;5264620;28;20596;-72
2022/12/20 19:56:04;;;;;;;11.80;10.53;;;;;;;9.25;100.00;100916.06;5266642;28;20103;-74
2022/12/20 19:58:36;;;;;;;11.60;10.47;;;;;;;9.23;100.00;100916.13;5266469;28;20041;-76
2022/12/20 20:01:08;;;;;;;12.33;11.03;;;;;;;9.23;100.00;100923.97;5266152;28;20040;-71
2022/12/20 20:03:40;;;;;;;12.87;11.47;;;;;;;9.14;100.00;100906.16;5266082;28;20089;-73
2022/12/20 20:06:11;;;;;;;12.67;11.37;;;;;;;9.23;100.00;100917.91;5264692;28;20040;-71
2022/12/20 20:08:44;;;;;;;12.63;11.37;;;;;;;9.24;100.00;100916.97;5266079;28;20447;-74
2022/12/20 20:11:17;;;;;;;12.60;11.20;;;;;;;9.19;100.00;100915.47;5265473;28;20041;-74
2022/12/20 20:13:49;;;;;;;12.37;10.90;;;;;;;9.21;100.00;100912.75;5265920;28;20032;-70
2022/12/20 20:16:20;;;;;;;13.07;11.67;;;;;;;9.20;100.00;100918.91;5265901;28;20055;-70
2022/12/20 20:18:51;;;;;;;13.60;12.03;;;;;;;9.24;100.00;100922.19;5266578;28;20048;-74
2022/12/20 20:21:23;;;;;;;12.77;11.57;;;;;;;9.20;100.00;100919.75;5263731;28;20033;-75
2022/12/20 20:23:54;;;;;;;12.43;11.17;;;;;;;9.18;100.00;100908.53;5264718;28;20044;-73
2022/12/20 20:26:28;;;;;;;17.00;12.43;;;;;;;9.16;100.00;100905.16;5265845;28;20032;-73
2022/12/20 20:29:01;;;;;;;13.60;12.20;;;;;;;9.16;100.00;100907.75;5261964;28;20044;-73
2022/12/20 20:31:32;;;;;;;13.47;11.70;;;;;;;9.14;100.00;100906.16;5265026;28;20037;-71
2022/12/20 20:34:03;;;;;;;13.80;12.37;;;;;;;9.19;100.00;100912.84;5264498;28;20074;-73
2022/12/20 20:36:35;;;;;;;18.23;12.03;;;;;;;9.16;100.00;100914.78;5265704;28;20047;-78
2022/12/20 20:39:06;;;;;;;12.47;11.37;;;;;;;9.08;100.00;100891.66;5263163;28;20410;-78
2022/12/20 20:41:38;;;;;;;12.83;11.70;;;;;;;9.16;100.00;100915.59;5265531;28;20036;-74
2022/12/20 20:44:11;;;;;;;12.90;11.70;;;;;;;9.14;100.00;100912.25;5268127;28;20040;-78
2022/12/20 20:46:42;;;;;;;12.83;11.53;;;;;;;9.18;100.00;100918.97;5268763;28;20045;-78
2022/12/20 20:49:13;;;;;;;12.43;11.13;;;;;;;9.17;100.00;100924.28;5268586;28;20043;-74
2022/12/20 20:51:44;;;;;;;13.37;12.07;;;;;;;9.19;100.00;100931.13;5269193;28;20036;-78
2022/12/20 20:54:16;;;;;;;16.00;11.83;;;;;;;9.13;100.00;100926.22;5266034;28;20035;-78
2022/12/20 20:56:47;;;;;;;14.10;11.93;;;;;;;9.19;100.00;100927.66;5269752;28;20036;-72
2022/12/20 20:59:21;;;;;;;13.17;11.87;;;;;;;9.16;100.00;100926.03;5267154;28;20028;-72
2022/12/20 21:01:53;;;;;;;14.65;13.18;;;;;;;9.16;100.00;100928.66;5269583;28;20725;-73
2022/12/20 21:04:24;;;;;;;13.87;12.47;;;;;;;9.11;100.00;100925.44;5268787;28;20511;-78
2022/12/20 21:06:56;;;;;;;14.13;12.87;;;;;;;9.14;100.00;100932.28;5268046;28;20036;-78
2022/12/20 21:09:27;;;;;;;13.93;12.63;;;;;;;9.09;100.00;100924.72;5267920;28;20071;-73
2022/12/20 21:11:59;;;;;;;14.43;13.03;;;;;;;9.11;100.00;100935.91;5268512;28;20667;-76
2022/12/20 21:14:30;;;;;;;15.63;14.03;;;;;;;9.10;100.00;100934.22;5267599;28;20106;-73
2022/12/20 21:17:01;;;;;;;15.23;13.77;;;;;;;9.12;100.00;100940.22;5268722;28;20040;-72
2022/12/20 21:19:33;;;;;;;15.57;14.17;;;;;;;9.08;100.00;100939.53;5269050;28;20111;-72
2022/12/20 21:22:04;;;;;;;14.93;13.53;;;;;;;9.11;100.00;100933.28;5266431;28;20032;-76
2022/12/20 21:24:35;;;;;;;16.43;14.93;;;;;;;9.02;100.00;100923.34;5267177;28;20128;-75
2022/12/20 21:27:06;;;;;;;15.97;14.40;;;;;;;9.09;100.00;100929.94;5268570;28;20051;-74
2022/12/20 21:29:38;;;;;;;15.73;14.20;;;;;;;8.98;100.00;100916.56;5267052;28;20036;-73
2022/12/20 21:32:09;;;;;;;16.13;14.63;;;;;;;9.04;100.00;100926.72;5268762;28;20043;-74
2022/12/20 21:34:40;;;;;;;16.50;14.90;;;;;;;9.09;100.00;100929.94;5268266;28;20036;-76
2022/12/20 21:37:12;;;;;;;17.03;15.50;;;;;;;9.03;100.00;100928.47;5266391;28;20120;-71
2022/12/20 21:39:43;;;;;;;16.67;15.07;;;;;;;9.11;100.00;100930.66;5267169;28;20028;-72
2022/12/20 21:42:14;;;;;;;16.67;15.13;;;;;;;9.11;100.00;100927.25;5267197;28;20037;-69
2022/12/20 21:44:45;;;;;;;16.47;14.97;;;;;;;9.11;100.00;100928.06;5268877;28;20098;-73
2022/12/20 21:47:16;;;;;;;16.53;15.10;;;;;;;9.14;100.00;100924.47;5269598;28;20060;-74
2022/12/20 21:49:48;;;;;;;16.57;15.03;;;;;;;9.11;100.00;100922.84;5268796;28;20078;-70
2022/12/20 21:52:19;;;;;;;16.50;14.80;;;;;;;9.08;100.00;100925.63;5266664;28;20031;-70
2022/12/20 21:54:50;;;;;;;15.77;14.27;;;;;;;9.12;100.00;100945.44;5266556;28;20467;-72
2022/12/20 21:57:22;;;;;;;17.13;15.53;;;;;;;9.07;100.00;100929.16;5266724;28;20678;-71
2022/12/20 21:59:53;;;;;;;17.47;15.67;;;;;;;9.10;100.00;100941.22;5265980;28;20161;-78
2022/12/20 22:02:24;;;;;;;17.13;15.43;;;;;;;9.11;100.00;100948.13;5264973;28;20037;-73
2022/12/20 22:04:55;;;;;;;17.30;15.60;;;;;;;9.08;100.00;100951.75;5265913;28;20021;-75
2022/12/20 22:07:27;;;;;;;17.63;15.77;;;;;;;9.04;100.00;100945.00;5264499;28;20036;-76
2022/12/20 22:09:58;;;;;;;17.97;16.23;;;;;;;9.06;100.00;100943.97;5297251;28;20059;-72
2022/12/20 22:12:29;;;;;;;17.47;15.77;;;;;;;9.05;100.00;100950.16;5264709;28;20467;-76
2022/12/20 22:15:00;;;;;;;17.87;15.93;;;;;;;8.97;100.00;100935.78;5265409;28;20024;-81
2022/12/20 22:17:32;;;;;;;17.43;15.83;;;;;;;9.08;100.00;100955.22;5265932;28;20059;-73
